createdAt,value
2023-03-07T00:00:04.122Z,100.00
2023-03-07T00:02:57.698Z,100.00
2023-03-07T00:05:47.627Z,100.00
2023-03-07T00:08:31.515Z,100.00
2023-03-07T00:11:16.653Z,100.00
2023-03-07T00:14:05.445Z,100.00
2023-03-07T00:16:53.420Z,100.00
2023-03-07T00:19:33.954Z,100.00
2023-03-07T00:22:20.959Z,100.00
2023-03-07T00:25:10.353Z,100.00
2023-03-07T00:27:58.404Z,100.00
2023-03-07T00:30:48.353Z,100.00
2023-03-07T00:33:29.034Z,100.00
2023-03-07T00:36:24.671Z,100.00
2023-03-07T00:39:08.030Z,100.00
2023-03-07T00:41:56.960Z,100.00
2023-03-07T00:44:40.574Z,100.00
2023-03-07T00:47:32.309Z,100.00
2023-03-07T00:50:21.677Z,100.00
2023-03-07T00:53:08.100Z,100.00
2023-03-07T00:56:04.055Z,100.00
2023-03-07T00:58:48.397Z,100.00
2023-03-07T01:01:34.089Z,100.00
2023-03-07T01:04:22.853Z,100.00
2023-03-07T01:07:12.652Z,100.00
2023-03-07T01:09:55.668Z,100.00
2023-03-07T01:12:44.894Z,100.00
2023-03-07T01:15:32.667Z,100.00
2023-03-07T01:18:22.552Z,100.00
2023-03-07T01:21:03.997Z,100.00
2023-03-07T01:23:52.409Z,100.00
2023-03-07T01:26:56.194Z,100.00
2023-03-07T01:29:42.625Z,100.00
2023-03-07T01:32:23.544Z,100.00
2023-03-07T01:35:12.345Z,100.00
2023-03-07T01:38:01.556Z,100.00
2023-03-07T01:40:51.729Z,100.00
2023-03-07T01:43:44.702Z,100.00
2023-03-07T01:47:02.256Z,100.00
2023-03-07T01:50:04.395Z,100.00
2023-03-07T01:52:51.430Z,100.00
2023-03-07T01:55:50.520Z,100.00
2023-03-07T01:58:40.974Z,100.00
2023-03-07T02:01:25.666Z,100.00
2023-03-07T02:04:09.861Z,100.00
2023-03-07T02:07:02.662Z,100.00
2023-03-07T02:09:44.131Z,100.00
2023-03-07T02:12:23.219Z,100.00
2023-03-07T02:15:12.461Z,100.00
2023-03-07T02:17:54.392Z,100.00
2023-03-07T02:20:53.645Z,100.00
2023-03-07T02:23:55.489Z,100.00
2023-03-07T02:26:48.961Z,100.00
2023-03-07T02:29:39.860Z,100.00
2023-03-07T02:32:31.628Z,100.00
2023-03-07T02:35:32.578Z,100.00
2023-03-07T02:38:14.411Z,100.00
2023-03-07T02:41:04.246Z,100.00
2023-03-07T02:43:54.374Z,100.00
2023-03-07T02:46:39.148Z,100.00
2023-03-07T02:49:28.535Z,100.00
2023-03-07T02:52:20.866Z,100.00
2023-03-07T02:55:11.483Z,100.00
2023-03-07T02:57:58.092Z,100.00
2023-03-07T03:00:44.479Z,100.00
2023-03-07T03:03:35.878Z,100.00
2023-03-07T03:06:32.556Z,100.00
2023-03-07T03:09:22.195Z,100.00
2023-03-07T03:12:06.021Z,100.00
2023-03-07T03:14:57.869Z,100.00
2023-03-07T03:17:50.781Z,100.00
2023-03-07T03:20:38.493Z,100.00
2023-03-07T03:23:25.177Z,100.00
2023-03-07T03:26:23.693Z,100.00
2023-03-07T03:29:28.654Z,100.00
2023-03-07T03:32:11.827Z,100.00
2023-03-07T03:35:07.187Z,100.00
2023-03-07T03:37:52.918Z,100.00
2023-03-07T03:40:53.302Z,100.00
2023-03-07T03:43:36.617Z,100.00
2023-03-07T03:46:17.702Z,100.00
2023-03-07T03:49:07.599Z,100.00
2023-03-07T03:51:54.403Z,100.00
2023-03-07T03:55:02.670Z,100.00
2023-03-07T03:57:49.592Z,100.00
2023-03-07T04:00:36.579Z,100.00
2023-03-07T04:03:28.982Z,100.00
2023-03-07T04:06:15.309Z,100.00
2023-03-07T04:09:05.064Z,100.00
2023-03-07T04:12:03.485Z,100.00
2023-03-07T04:14:49.954Z,100.00
2023-03-07T04:17:34.620Z,100.00
2023-03-07T04:20:19.046Z,100.00
2023-03-07T04:23:10.977Z,100.00
2023-03-07T04:26:08.278Z,100.00
2023-03-07T04:28:58.571Z,100.00
2023-03-07T04:32:08.926Z,100.00
2023-03-07T04:35:06.311Z,100.00
2023-03-07T04:37:44.067Z,100.00
2023-03-07T04:40:33.639Z,100.00
2023-03-07T04:43:28.279Z,100.00
2023-03-07T04:46:09.640Z,100.00
2023-03-07T04:48:53.983Z,100.00
2023-03-07T04:51:33.405Z,100.00
2023-03-07T04:54:19.805Z,100.00
2023-03-07T04:57:05.788Z,100.00
2023-03-07T05:00:00.276Z,100.00
2023-03-07T05:02:46.569Z,100.00
2023-03-07T05:05:37.783Z,100.00
2023-03-07T05:08:25.001Z,100.00
2023-03-07T05:11:17.636Z,100.00
2023-03-07T05:13:56.049Z,100.00
2023-03-07T05:16:39.252Z,100.00
2023-03-07T05:19:31.957Z,100.00
2023-03-07T05:22:23.457Z,100.00
2023-03-07T05:25:12.998Z,100.00
2023-03-07T05:27:57.596Z,100.00
2023-03-07T05:31:00.342Z,100.00
2023-03-07T05:33:47.658Z,100.00
2023-03-07T05:36:31.968Z,100.00
2023-03-07T05:39:10.034Z,100.00
2023-03-07T05:41:58.935Z,100.00
2023-03-07T05:44:46.470Z,100.00
2023-03-07T05:47:30.403Z,100.00
2023-03-07T05:50:08.544Z,100.00
2023-03-07T05:52:53.529Z,100.00
2023-03-07T05:55:34.585Z,100.00
2023-03-07T05:58:20.981Z,100.00
2023-03-07T06:01:07.396Z,100.00
2023-03-07T06:03:51.299Z,100.00
2023-03-07T06:06:38.481Z,100.00
2023-03-07T06:09:28.528Z,100.00
2023-03-07T06:12:15.277Z,100.00
2023-03-07T06:15:07.594Z,100.00
2023-03-07T06:17:54.336Z,100.00
2023-03-07T06:20:33.495Z,100.00
2023-03-07T06:23:16.374Z,100.00
2023-03-07T06:26:03.762Z,100.00
2023-03-07T06:28:48.428Z,100.00
2023-03-07T06:31:32.819Z,100.00
2023-03-07T06:34:19.649Z,100.00
2023-03-07T06:37:11.167Z,100.00
2023-03-07T06:39:57.593Z,100.00
2023-03-07T06:42:38.650Z,100.00
2023-03-07T06:45:29.601Z,100.00
2023-03-07T06:48:16.323Z,100.00
2023-03-07T06:51:04.416Z,100.00
2023-03-07T06:53:56.787Z,100.00
2023-03-07T06:56:45.937Z,100.00
2023-03-07T06:59:33.119Z,100.00
2023-03-07T07:02:21.128Z,100.00
2023-03-07T07:05:04.041Z,100.00
2023-03-07T07:07:48.627Z,100.00
2023-03-07T07:10:40.720Z,100.00
2023-03-07T07:13:30.060Z,100.00
2023-03-07T07:16:33.714Z,100.00
2023-03-07T07:19:26.483Z,100.00
2023-03-07T07:22:14.655Z,100.00
2023-03-07T07:25:07.029Z,100.00
2023-03-07T07:28:01.597Z,100.00
2023-03-07T07:30:45.591Z,100.00
2023-03-07T07:33:38.443Z,100.00
2023-03-07T07:36:23.736Z,100.00
2023-03-07T07:39:13.208Z,100.00
2023-03-07T07:42:03.597Z,100.00
2023-03-07T07:44:51.570Z,100.00
2023-03-07T07:47:49.596Z,100.00
2023-03-07T07:50:28.967Z,100.00
2023-03-07T07:53:17.038Z,100.00
2023-03-07T07:56:07.630Z,100.00
2023-03-07T07:59:00.468Z,100.00
2023-03-07T08:01:43.753Z,100.00
2023-03-07T08:04:30.183Z,100.00
2023-03-07T08:07:22.024Z,100.00
2023-03-07T08:10:06.635Z,100.00
2023-03-07T08:13:04.788Z,100.00
2023-03-07T08:15:49.280Z,100.00
2023-03-07T08:18:40.597Z,100.00
2023-03-07T08:21:32.968Z,100.00
2023-03-07T08:24:17.625Z,100.00
2023-03-07T08:27:18.695Z,100.00
2023-03-07T08:30:04.914Z,100.00
2023-03-07T08:32:52.370Z,100.00
2023-03-07T08:35:37.064Z,100.00
2023-03-07T08:38:22.610Z,100.00
2023-03-07T08:41:27.312Z,100.00
2023-03-07T08:44:16.586Z,100.00
2023-03-07T08:47:00.438Z,100.00
2023-03-07T08:49:47.940Z,100.00
2023-03-07T08:52:35.609Z,100.00
2023-03-07T08:55:17.853Z,100.00
2023-03-07T08:58:01.678Z,100.00
2023-03-07T09:00:48.410Z,100.00
2023-03-07T09:03:35.272Z,100.00
2023-03-07T09:06:38.660Z,100.00
2023-03-07T09:09:24.586Z,97.16
2023-03-07T09:12:06.564Z,92.90
2023-03-07T09:14:52.583Z,93.77
2023-03-07T09:17:36.321Z,91.29
2023-03-07T09:20:16.546Z,86.92
2023-03-07T09:23:03.380Z,85.63
2023-03-07T09:25:48.580Z,87.46
2023-03-07T09:28:30.571Z,86.66
2023-03-07T09:31:21.459Z,82.32
2023-03-07T09:34:02.569Z,80.54
2023-03-07T09:36:42.942Z,80.28
2023-03-07T09:39:24.519Z,77.20
2023-03-07T09:42:25.231Z,80.46
2023-03-07T09:45:32.266Z,82.45
2023-03-07T09:48:41.491Z,81.22
2023-03-07T09:51:50.600Z,82.08
2023-03-07T09:55:05.169Z,79.14
2023-03-07T09:57:53.398Z,76.73
2023-03-07T10:00:57.712Z,74.09
2023-03-07T10:04:27.247Z,76.46
2023-03-07T10:07:21.223Z,78.28
2023-03-07T10:10:15.777Z,79.75
2023-03-07T10:13:16.551Z,80.15
2023-03-07T10:16:07.097Z,78.96
2023-03-07T10:19:07.497Z,77.41
2023-03-07T10:22:18.165Z,77.85
2023-03-07T10:25:32.730Z,79.25
2023-03-07T10:28:32.729Z,74.89
2023-03-07T10:31:38.957Z,69.35
2023-03-07T10:34:32.874Z,67.87
2023-03-07T10:37:53.837Z,67.09
2023-03-07T10:40:45.489Z,70.55
2023-03-07T10:43:42.414Z,64.16
2023-03-07T10:46:27.835Z,62.09
2023-03-07T10:49:18.418Z,60.80
2023-03-07T10:52:17.956Z,57.21
2023-03-07T10:55:48.560Z,57.13
2023-03-07T10:58:21.605Z,58.25
2023-03-07T11:01:23.516Z,57.33
2023-03-07T11:04:05.582Z,59.35
2023-03-07T11:07:06.298Z,58.06
2023-03-07T11:10:04.617Z,56.96
2023-03-07T11:12:59.186Z,58.75
2023-03-07T11:15:44.052Z,56.70
2023-03-07T11:18:56.589Z,53.75
2023-03-07T11:21:41.850Z,57.05
2023-03-07T11:24:46.618Z,54.88
2023-03-07T11:28:00.720Z,55.95
2023-03-07T11:30:46.632Z,57.29
2023-03-07T11:34:03.393Z,56.59
2023-03-07T11:36:52.172Z,55.96
2023-03-07T11:39:48.841Z,56.18
2023-03-07T11:42:39.808Z,54.94
2023-03-07T11:45:38.763Z,54.44
2023-03-07T11:48:30.576Z,53.92
2023-03-07T11:51:42.577Z,54.52
2023-03-07T11:54:48.125Z,52.13
2023-03-07T11:58:31.480Z,52.21
2023-03-07T12:01:50.851Z,53.25
2023-03-07T12:04:59.591Z,53.25
2023-03-07T12:07:55.018Z,52.33
2023-03-07T12:10:43.962Z,52.90
2023-03-07T12:13:55.337Z,53.57
2023-03-07T12:17:02.310Z,53.84
2023-03-07T12:19:59.177Z,53.56
2023-03-07T12:23:12.604Z,53.09
2023-03-07T12:25:56.800Z,51.60
2023-03-07T12:28:47.049Z,53.66
2023-03-07T12:31:45.968Z,52.36
2023-03-07T12:35:01.955Z,53.23
2023-03-07T12:37:46.180Z,53.65
2023-03-07T12:40:35.112Z,54.07
2023-03-07T12:43:54.675Z,55.16
2023-03-07T12:46:47.875Z,54.37
2023-03-07T12:49:50.486Z,54.45
2023-03-07T12:53:15.186Z,54.48
2023-03-07T12:56:27.777Z,54.99
2023-03-07T12:59:06.164Z,56.79
2023-03-07T13:02:13.427Z,57.59
2023-03-07T13:04:57.014Z,61.41
2023-03-07T13:07:38.530Z,62.28
2023-03-07T13:10:32.874Z,63.63
2023-03-07T13:13:43.766Z,64.66
2023-03-07T13:16:37.487Z,64.40
2023-03-07T13:19:44.916Z,66.19
2023-03-07T13:22:56.328Z,66.56
2023-03-07T13:25:44.644Z,68.18
2023-03-07T13:28:32.401Z,68.00
2023-03-07T13:31:20.731Z,67.87
2023-03-07T13:34:15.522Z,69.06
2023-03-07T13:37:04.603Z,69.14
2023-03-07T13:40:02.669Z,68.31
2023-03-07T13:42:59.426Z,68.92
2023-03-07T13:46:34.052Z,68.54
2023-03-07T13:49:34.359Z,68.19
2023-03-07T13:52:34.446Z,67.18
2023-03-07T13:55:26.144Z,67.45
2023-03-07T13:58:33.584Z,67.77
2023-03-07T14:01:31.405Z,68.09
2023-03-07T14:04:57.541Z,69.48
2023-03-07T14:07:51.519Z,71.37
2023-03-07T14:10:48.489Z,72.77
2023-03-07T14:14:02.579Z,71.99
2023-03-07T14:17:05.920Z,73.50
2023-03-07T14:20:17.624Z,72.61
2023-03-07T14:23:41.924Z,72.76
2023-03-07T14:26:42.785Z,73.29
2023-03-07T14:29:41.475Z,70.79
2023-03-07T14:33:00.554Z,69.85
2023-03-07T14:35:48.387Z,70.55
2023-03-07T14:38:51.298Z,70.25
2023-03-07T14:41:58.133Z,70.42
2023-03-07T14:45:21.412Z,70.23
2023-03-07T14:48:18.070Z,70.42
2023-03-07T14:51:12.267Z,71.47
2023-03-07T14:53:59.763Z,72.07
2023-03-07T14:56:57.065Z,72.66
2023-03-07T14:59:46.668Z,73.79
2023-03-07T15:02:35.051Z,74.02
2023-03-07T15:05:27.220Z,74.81
2023-03-07T15:08:23.566Z,75.69
2023-03-07T15:11:19.746Z,75.09
2023-03-07T15:14:18.396Z,75.12
2023-03-07T15:17:11.643Z,76.37
2023-03-07T15:20:04.158Z,76.16
2023-03-07T15:22:48.623Z,76.41
2023-03-07T15:25:49.487Z,76.98
2023-03-07T15:28:37.951Z,76.46
2023-03-07T15:31:28.654Z,78.35
2023-03-07T15:34:30.821Z,79.82
2023-03-07T15:37:39.275Z,79.88
2023-03-07T15:40:43.086Z,81.10
2023-03-07T15:43:26.019Z,82.16
2023-03-07T15:46:24.594Z,82.94
2023-03-07T15:49:11.321Z,83.21
2023-03-07T15:52:03.552Z,85.82
2023-03-07T15:54:55.184Z,87.01
2023-03-07T15:57:41.632Z,87.50
2023-03-07T16:00:38.581Z,88.28
2023-03-07T16:03:34.310Z,89.19
2023-03-07T16:06:59.179Z,89.88
2023-03-07T16:09:54.066Z,90.60
2023-03-07T16:12:49.861Z,92.85
2023-03-07T16:15:37.566Z,94.42
2023-03-07T16:18:34.692Z,94.58
2023-03-07T16:21:23.958Z,93.84
2023-03-07T16:24:10.111Z,93.71
2023-03-07T16:27:03.145Z,94.55
2023-03-07T16:29:52.126Z,94.90
2023-03-07T16:32:35.945Z,94.91
2023-03-07T16:35:28.401Z,95.39
2023-03-07T16:38:12.606Z,95.16
2023-03-07T16:41:01.407Z,97.39
2023-03-07T16:43:54.872Z,96.55
2023-03-07T16:46:46.613Z,96.44
2023-03-07T16:49:32.169Z,96.09
2023-03-07T16:52:30.333Z,96.05
2023-03-07T16:55:19.680Z,96.97
2023-03-07T16:58:07.252Z,96.85
2023-03-07T17:00:53.725Z,97.24
2023-03-07T17:03:40.559Z,97.55
2023-03-07T17:06:38.526Z,97.14
2023-03-07T17:09:24.033Z,97.16
2023-03-07T17:12:10.734Z,96.21
2023-03-07T17:15:01.064Z,96.49
2023-03-07T17:17:48.563Z,96.56
2023-03-07T17:20:34.525Z,97.13
2023-03-07T17:23:22.584Z,97.23
2023-03-07T17:26:17.591Z,98.09
2023-03-07T17:29:03.437Z,99.06
2023-03-07T17:31:50.541Z,99.18
2023-03-07T17:34:57.717Z,100.00
2023-03-07T17:37:42.594Z,99.54
2023-03-07T17:40:46.757Z,99.88
2023-03-07T17:43:27.682Z,100.00
2023-03-07T17:46:16.611Z,100.00
2023-03-07T17:49:05.576Z,100.00
2023-03-07T17:51:46.711Z,100.00
2023-03-07T17:54:36.422Z,100.00
2023-03-07T17:57:27.339Z,100.00
2023-03-07T18:00:18.167Z,100.00
2023-03-07T18:03:05.797Z,100.00
2023-03-07T18:05:51.530Z,100.00
2023-03-07T18:08:47.542Z,100.00
2023-03-07T18:11:41.617Z,100.00
2023-03-07T18:14:33.678Z,100.00
2023-03-07T18:17:17.515Z,100.00
2023-03-07T18:20:12.413Z,100.00
2023-03-07T18:22:57.910Z,100.00
2023-03-07T18:25:47.653Z,100.00
2023-03-07T18:28:33.366Z,100.00
2023-03-07T18:31:36.647Z,100.00
2023-03-07T18:34:25.610Z,100.00
2023-03-07T18:37:11.438Z,100.00
2023-03-07T18:39:49.750Z,100.00
2023-03-07T18:42:45.308Z,100.00
2023-03-07T18:45:27.056Z,100.00
2023-03-07T18:48:24.119Z,100.00
2023-03-07T18:51:14.674Z,100.00
2023-03-07T18:53:54.004Z,100.00
2023-03-07T18:56:47.740Z,100.00
2023-03-07T18:59:31.989Z,100.00
2023-03-07T19:02:24.289Z,100.00
2023-03-07T19:05:08.620Z,100.00
2023-03-07T19:07:56.541Z,100.00
2023-03-07T19:10:45.841Z,100.00
2023-03-07T19:13:34.916Z,100.00
2023-03-07T19:16:28.104Z,100.00
2023-03-07T19:19:15.742Z,100.00
2023-03-07T19:22:09.431Z,100.00
2023-03-07T19:24:56.779Z,100.00
2023-03-07T19:27:40.217Z,100.00
2023-03-07T19:30:30.498Z,100.00
2023-03-07T19:33:09.584Z,100.00
2023-03-07T19:36:02.120Z,100.00
2023-03-07T19:39:00.605Z,100.00
2023-03-07T19:41:49.077Z,100.00
2023-03-07T19:44:33.303Z,100.00
2023-03-07T19:47:29.010Z,100.00
2023-03-07T19:50:06.811Z,100.00
2023-03-07T19:52:57.422Z,100.00
2023-03-07T19:58:54.480Z,100.00
2023-03-07T20:01:36.621Z,100.00
2023-03-07T20:04:20.838Z,100.00
2023-03-07T20:07:02.578Z,100.00
2023-03-07T20:09:48.716Z,100.00
2023-03-07T20:12:32.502Z,100.00
2023-03-07T20:15:16.572Z,100.00
2023-03-07T20:18:02.428Z,100.00
2023-03-07T20:21:01.019Z,100.00
2023-03-07T20:23:41.588Z,100.00
2023-03-07T20:26:25.889Z,100.00
2023-03-07T20:29:15.530Z,100.00
2023-03-07T20:31:58.192Z,100.00
2023-03-07T20:34:47.313Z,100.00
2023-03-07T20:37:42.058Z,100.00
2023-03-07T20:40:22.496Z,100.00
2023-03-07T20:43:18.200Z,100.00
2023-03-07T20:46:04.292Z,100.00
2023-03-07T20:48:47.018Z,100.00
2023-03-07T20:51:38.562Z,100.00
2023-03-07T20:54:25.079Z,100.00
2023-03-07T20:57:08.337Z,100.00
2023-03-07T21:00:00.548Z,100.00
2023-03-07T21:02:48.342Z,100.00
2023-03-07T21:05:54.301Z,100.00
2023-03-07T21:08:32.769Z,100.00
2023-03-07T21:11:16.994Z,100.00
2023-03-07T21:14:01.538Z,100.00
2023-03-07T21:16:51.587Z,100.00
2023-03-07T21:19:35.574Z,100.00
2023-03-07T21:22:17.556Z,100.00
2023-03-07T21:25:04.194Z,100.00
2023-03-07T21:27:59.322Z,100.00
2023-03-07T21:30:44.533Z,100.00
2023-03-07T21:33:29.775Z,100.00
2023-03-07T21:36:17.311Z,100.00
2023-03-07T21:39:03.699Z,100.00
2023-03-07T21:42:01.190Z,100.00
2023-03-07T21:44:46.817Z,100.00
2023-03-07T21:47:34.254Z,100.00
2023-03-07T21:50:24.046Z,100.00
2023-03-07T21:53:10.539Z,100.00
2023-03-07T21:56:06.916Z,100.00
2023-03-07T21:58:57.029Z,100.00
2023-03-07T22:01:45.537Z,100.00
2023-03-07T22:04:32.058Z,100.00
2023-03-07T22:07:18.674Z,100.00
2023-03-07T22:10:12.156Z,100.00
2023-03-07T22:12:54.955Z,100.00
2023-03-07T22:15:36.491Z,100.00
2023-03-07T22:18:19.783Z,100.00
2023-03-07T22:21:16.341Z,100.00
2023-03-07T22:24:07.531Z,100.00
2023-03-07T22:26:43.130Z,100.00
2023-03-07T22:29:32.524Z,100.00
2023-03-07T22:32:10.614Z,100.00
2023-03-07T22:35:10.486Z,100.00
2023-03-07T22:37:56.130Z,100.00
2023-03-07T22:40:47.707Z,100.00
2023-03-07T22:43:38.024Z,100.00
2023-03-07T22:46:21.902Z,100.00
2023-03-07T22:49:14.094Z,100.00
2023-03-07T22:52:01.320Z,100.00
2023-03-07T22:54:50.510Z,100.00
2023-03-07T22:57:39.201Z,100.00
2023-03-07T23:00:29.049Z,100.00
2023-03-07T23:03:09.692Z,100.00
2023-03-07T23:05:53.604Z,100.00
2023-03-07T23:08:32.488Z,100.00
2023-03-07T23:11:17.572Z,100.00
2023-03-07T23:14:11.427Z,100.00
2023-03-07T23:16:58.371Z,100.00
2023-03-07T23:19:41.594Z,100.00
2023-03-07T23:22:25.047Z,100.00
2023-03-07T23:25:12.517Z,100.00
2023-03-07T23:27:55.740Z,100.00
2023-03-07T23:30:45.139Z,100.00
2023-03-07T23:33:39.267Z,100.00
2023-03-07T23:36:22.899Z,100.00
2023-03-07T23:39:17.334Z,100.00
2023-03-07T23:42:04.296Z,100.00
2023-03-07T23:44:50.462Z,100.00
2023-03-07T23:47:30.800Z,100.00
2023-03-07T23:50:19.467Z,100.00
2023-03-07T23:53:02.916Z,100.00
2023-03-07T23:55:48.620Z,100.00
2023-03-07T23:58:29.794Z,100.00
